createdAt,value
2022-12-15T00:02:19.649Z,92.40
2022-12-15T00:10:38.211Z,91.70
2022-12-15T00:13:30.807Z,92.00
2022-12-15T00:21:48.595Z,91.70
2022-12-15T00:24:33.864Z,94.10
2022-12-15T00:30:05.665Z,91.70
2022-12-15T00:32:51.659Z,91.90
2022-12-15T00:35:37.536Z,92.30
2022-12-15T00:38:27.847Z,92.10
2022-12-15T00:40:59.203Z,92.10
2022-12-15T00:43:30.941Z,92.10
2022-12-15T00:59:32.473Z,92.10
2022-12-15T01:10:37.914Z,93.00
2022-12-15T01:13:24.258Z,93.00
2022-12-15T01:41:09.746Z,91.90
2022-12-15T01:43:39.516Z,92.10
2022-12-15T01:46:16.067Z,92.20
2022-12-15T01:51:30.378Z,91.90
2022-12-15T01:56:37.048Z,91.70
2022-12-15T02:04:01.053Z,91.40
2022-12-15T02:06:28.934Z,91.80
2022-12-15T02:09:00.319Z,92.00
2022-12-15T02:14:09.511Z,92.20
2022-12-15T02:27:12.263Z,91.60
2022-12-15T02:30:17.149Z,91.30
2022-12-15T02:32:59.141Z,90.90
2022-12-15T02:42:55.374Z,91.00
2022-12-15T02:45:35.566Z,90.80
2022-12-15T02:48:23.682Z,90.70
2022-12-15T02:56:20.988Z,91.00
2022-12-15T03:03:56.928Z,91.40
2022-12-15T04:07:56.142Z,90.80
2022-12-15T04:13:08.339Z,91.10
2022-12-15T04:15:37.962Z,91.10
2022-12-15T04:18:09.934Z,91.00
2022-12-15T04:20:39.009Z,91.00
2022-12-15T04:31:37.561Z,92.20
2022-12-15T04:34:25.666Z,92.60
2022-12-15T04:37:12.447Z,93.00
2022-12-15T04:40:03.422Z,92.90
2022-12-15T04:42:51.015Z,92.70
2022-12-15T04:45:39.936Z,92.40
2022-12-15T05:13:26.174Z,91.60
2022-12-15T06:29:11.391Z,92.50
2022-12-15T06:34:13.730Z,92.40
2022-12-15T06:39:11.324Z,92.50
2022-12-15T06:41:38.715Z,92.50
2022-12-15T06:56:34.614Z,92.50
2022-12-15T07:06:36.568Z,92.80
2022-12-15T07:41:19.736Z,92.50
2022-12-15T08:01:13.250Z,92.30
2022-12-15T08:06:13.425Z,92.10
2022-12-15T08:08:50.777Z,92.10
2022-12-15T09:00:11.654Z,92.70
2022-12-15T09:10:07.358Z,92.80
2022-12-15T09:49:55.685Z,93.30
2022-12-15T09:52:31.357Z,93.30
2022-12-15T09:54:59.292Z,93.40
2022-12-15T09:57:56.171Z,93.60
2022-12-15T10:00:32.938Z,93.60
2022-12-15T10:03:40.742Z,93.50
2022-12-15T10:06:20.092Z,93.50
2022-12-15T10:08:58.517Z,93.50
2022-12-15T10:11:44.296Z,93.70
2022-12-15T10:21:58.275Z,93.80
2022-12-15T10:25:07.952Z,93.70
2022-12-15T10:27:54.756Z,93.60
2022-12-15T10:35:28.771Z,93.80
2022-12-15T10:38:00.403Z,94.10
2022-12-15T10:40:56.780Z,94.10
2022-12-15T10:46:02.100Z,94.20
2022-12-15T10:51:15.696Z,94.20
2022-12-15T10:59:42.203Z,94.50
2022-12-15T11:06:25.144Z,94.60
2022-12-15T11:08:55.730Z,94.80
2022-12-15T11:14:21.409Z,94.70
2022-12-15T11:17:06.958Z,94.60
2022-12-15T11:22:55.347Z,94.70
2022-12-15T11:25:44.822Z,94.70
2022-12-15T11:28:38.892Z,94.70
2022-12-15T11:31:28.977Z,94.80
2022-12-15T11:38:58.108Z,94.90
2022-12-15T11:41:59.123Z,94.80
2022-12-15T11:44:37.173Z,94.80
2022-12-15T11:47:45.025Z,94.90
2022-12-15T11:50:33.611Z,94.90
2022-12-15T11:53:33.263Z,94.90
2022-12-15T11:56:32.872Z,94.90
2022-12-15T11:59:27.394Z,95.00
2022-12-15T12:05:19.347Z,95.20
2022-12-15T12:07:58.017Z,95.20
2022-12-15T12:15:41.897Z,95.30
2022-12-15T12:18:34.838Z,95.40
2022-12-15T12:25:16.737Z,95.30
2022-12-15T12:28:05.695Z,95.60
2022-12-15T12:30:43.368Z,95.60
2022-12-15T12:33:34.964Z,95.70
2022-12-15T12:36:13.393Z,95.80
2022-12-15T12:38:48.793Z,95.90
2022-12-15T12:41:36.181Z,95.90
2022-12-15T12:44:29.256Z,96.00
2022-12-15T12:46:58.786Z,96.10
2022-12-15T12:52:30.070Z,96.20
2022-12-15T12:55:14.523Z,96.20
2022-12-15T12:57:43.611Z,96.30
2022-12-15T13:00:22.395Z,96.40
2022-12-15T13:05:38.150Z,96.70
2022-12-15T13:10:40.862Z,96.70
2022-12-15T13:13:36.547Z,96.70
2022-12-15T13:16:26.713Z,96.80
2022-12-15T13:18:57.921Z,96.80
2022-12-15T13:21:44.955Z,96.80
2022-12-15T13:24:29.759Z,96.70
2022-12-15T13:27:08.994Z,96.70
2022-12-15T13:29:53.873Z,96.60
2022-12-15T13:32:29.489Z,96.60
2022-12-15T13:37:54.292Z,96.70
2022-12-15T13:40:35.475Z,96.60
2022-12-15T13:43:05.596Z,96.70
2022-12-15T13:48:39.397Z,98.90
2022-12-15T13:53:49.718Z,96.90
2022-12-15T13:56:45.934Z,96.90
2022-12-15T14:09:46.869Z,96.80
2022-12-15T14:14:49.175Z,96.90
2022-12-15T14:17:18.753Z,97.10
2022-12-15T14:19:50.992Z,97.20
2022-12-15T14:22:30.314Z,97.40
2022-12-15T14:25:23.820Z,97.40
2022-12-15T14:33:08.368Z,97.00
2022-12-15T14:35:44.450Z,97.00
2022-12-15T14:38:25.845Z,96.90
2022-12-15T14:40:57.470Z,96.90
2022-12-15T14:43:33.264Z,96.80
2022-12-15T14:46:13.923Z,96.70
2022-12-15T14:48:57.596Z,96.70
2022-12-15T14:51:31.487Z,97.00
2022-12-15T15:07:56.985Z,95.80
2022-12-15T15:10:29.451Z,95.80
2022-12-15T15:12:56.462Z,96.30
2022-12-15T15:15:26.626Z,95.90
2022-12-15T15:17:55.729Z,95.80
2022-12-15T15:20:24.462Z,96.10
2022-12-15T15:23:19.011Z,96.10
2022-12-15T15:25:56.658Z,96.10
2022-12-15T15:28:28.978Z,95.90
2022-12-15T15:31:05.417Z,96.30
2022-12-15T15:33:33.109Z,96.20
2022-12-15T15:36:02.232Z,96.40
2022-12-15T15:38:35.450Z,96.90
2022-12-15T15:41:22.759Z,96.40
2022-12-15T15:43:49.599Z,96.50
2022-12-15T15:46:21.355Z,96.50
2022-12-15T15:48:55.434Z,97.00
2022-12-15T15:51:24.362Z,96.30
2022-12-15T15:53:51.861Z,96.30
2022-12-15T15:56:19.538Z,96.70
2022-12-15T16:01:13.885Z,96.00
2022-12-15T16:03:41.872Z,96.40
2022-12-15T16:06:17.251Z,95.80
2022-12-15T16:08:45.562Z,95.60
2022-12-15T16:13:40.244Z,95.20
2022-12-15T16:16:15.071Z,94.90
2022-12-15T16:18:41.991Z,94.80
2022-12-15T16:21:12.288Z,95.00
2022-12-15T16:28:34.135Z,95.40
2022-12-15T16:31:01.604Z,96.40
2022-12-15T16:33:28.683Z,96.60
2022-12-15T16:35:55.692Z,95.40
2022-12-15T16:43:19.772Z,95.10
2022-12-15T16:45:49.581Z,95.70
2022-12-15T16:48:17.175Z,95.80
2022-12-15T16:50:48.368Z,95.30
2022-12-15T16:53:37.628Z,95.30
2022-12-15T16:56:07.154Z,95.40
2022-12-15T16:58:36.086Z,95.50
2022-12-15T17:03:31.148Z,95.40
2022-12-15T17:06:06.458Z,95.70
2022-12-15T17:08:49.371Z,95.90
2022-12-15T17:11:21.999Z,95.60
2022-12-15T17:13:51.426Z,95.80
2022-12-15T17:16:20.752Z,95.50
2022-12-15T17:18:48.360Z,95.70
2022-12-15T17:21:32.120Z,95.10
2022-12-15T17:24:07.764Z,94.90
2022-12-15T17:26:36.804Z,95.00
2022-12-15T17:29:09.461Z,95.20
2022-12-15T17:31:36.504Z,95.20
2022-12-15T17:34:24.557Z,95.60
2022-12-15T17:39:20.627Z,94.50
2022-12-15T17:42:04.583Z,95.40
2022-12-15T17:44:37.482Z,94.70
2022-12-15T17:47:30.614Z,94.80
2022-12-15T17:52:29.205Z,94.80
2022-12-15T17:54:57.264Z,94.60
2022-12-15T17:57:24.231Z,97.10
2022-12-15T18:02:18.562Z,94.90
2022-12-15T18:04:45.895Z,97.60
2022-12-15T18:07:23.784Z,95.00
2022-12-15T18:09:52.095Z,94.50
2022-12-15T18:12:24.589Z,94.00
2022-12-15T18:17:19.969Z,96.20
2022-12-15T18:22:20.411Z,93.80
2022-12-15T18:27:24.093Z,93.70
2022-12-15T18:32:20.273Z,93.50
2022-12-15T18:37:20.217Z,93.40
2022-12-15T18:39:47.419Z,93.90
2022-12-15T18:42:19.626Z,94.20
2022-12-15T18:44:50.075Z,96.90
2022-12-15T18:47:18.983Z,96.00
2022-12-15T18:52:26.512Z,93.90
2022-12-15T18:54:55.821Z,93.90
2022-12-15T18:57:30.320Z,96.20
2022-12-15T19:00:08.005Z,93.60
2022-12-15T19:05:02.500Z,93.50
2022-12-15T19:07:29.423Z,96.10
2022-12-15T19:09:56.472Z,96.20
2022-12-15T19:14:51.838Z,93.60
2022-12-15T19:17:40.253Z,93.60
2022-12-15T19:20:46.230Z,93.50
2022-12-15T19:23:15.263Z,93.50
2022-12-15T19:25:43.686Z,93.50
2022-12-15T19:28:23.649Z,93.10
2022-12-15T19:35:50.867Z,93.10
2022-12-15T19:38:24.781Z,95.90
2022-12-15T19:40:55.897Z,93.30
2022-12-15T19:43:24.570Z,93.40
2022-12-15T19:45:52.680Z,93.40
2022-12-15T19:50:52.226Z,93.60
2022-12-15T19:53:28.595Z,93.70
2022-12-15T19:56:01.631Z,96.30
2022-12-15T19:58:30.163Z,93.50
2022-12-15T20:01:04.563Z,93.50
2022-12-15T20:06:01.703Z,92.60
2022-12-15T20:08:34.150Z,91.30
2022-12-15T20:11:01.399Z,93.90
2022-12-15T20:15:56.642Z,93.80
2022-12-15T20:23:26.333Z,94.80
2022-12-15T20:25:54.290Z,92.20
2022-12-15T20:28:25.959Z,94.90
2022-12-15T20:33:20.671Z,94.50
2022-12-15T20:35:49.079Z,91.70
2022-12-15T20:38:29.334Z,94.60
2022-12-15T20:40:56.552Z,94.30
2022-12-15T20:43:24.493Z,91.60
2022-12-15T20:46:07.522Z,91.90
2022-12-15T20:48:36.855Z,92.00
2022-12-15T20:51:09.209Z,92.30
2022-12-15T20:56:06.331Z,92.20
2022-12-15T20:58:40.770Z,95.20
2022-12-15T21:01:19.443Z,95.30
2022-12-15T21:06:14.707Z,95.30
2022-12-15T21:08:41.843Z,95.00
2022-12-15T21:11:21.376Z,94.60
2022-12-15T21:13:49.473Z,92.00
2022-12-15T21:16:26.048Z,94.60
2022-12-15T21:21:44.953Z,94.70
2022-12-15T21:24:32.220Z,92.10
2022-12-15T21:26:59.087Z,94.70
2022-12-15T21:29:28.615Z,91.50
2022-12-15T21:36:55.330Z,94.20
2022-12-15T21:39:29.306Z,91.40
2022-12-15T21:41:59.718Z,91.40
2022-12-15T21:46:54.659Z,94.00
2022-12-15T21:49:21.799Z,93.50
2022-12-15T21:52:00.366Z,90.80
2022-12-15T21:54:31.816Z,94.10
2022-12-15T21:57:00.510Z,94.20
2022-12-15T21:59:30.532Z,94.40
2022-12-15T22:01:57.518Z,91.60
2022-12-15T22:04:30.392Z,94.00
2022-12-15T22:06:57.327Z,93.90
2022-12-15T22:11:55.763Z,93.30
2022-12-15T22:14:29.328Z,90.50
2022-12-15T22:16:57.192Z,92.90
2022-12-15T22:21:51.986Z,93.20
2022-12-15T22:24:19.572Z,93.30
2022-12-15T22:26:47.180Z,90.50
2022-12-15T22:29:20.644Z,90.80
2022-12-15T22:31:49.483Z,91.00
2022-12-15T22:34:21.966Z,94.00
2022-12-15T22:36:50.040Z,93.70
2022-12-15T22:39:18.854Z,90.90
2022-12-15T22:41:49.916Z,94.30
2022-12-15T22:44:23.864Z,94.00
2022-12-15T22:46:52.400Z,90.80
2022-12-15T22:49:24.115Z,93.10
2022-12-15T22:54:27.012Z,93.40
2022-12-15T22:57:05.993Z,91.10
2022-12-15T22:59:41.268Z,94.00
2022-12-15T23:02:09.063Z,91.10
2022-12-15T23:07:05.713Z,93.50
2022-12-15T23:14:54.161Z,91.40
2022-12-15T23:27:11.765Z,90.60
2022-12-15T23:32:06.250Z,93.60
2022-12-15T23:34:33.167Z,93.10
2022-12-15T23:37:00.846Z,93.10
2022-12-15T23:39:27.823Z,93.00
2022-12-15T23:44:21.972Z,93.80
2022-12-15T23:46:48.904Z,93.70
2022-12-15T23:49:15.861Z,93.30
2022-12-15T23:54:10.280Z,93.10
2022-12-15T23:56:39.367Z,90.20
